sensor_id;sensor_type;location;lat;lon;timestamp;pressure;altitude;pressure_sealevel;temperature;humidity
18323;BME280;9287;49.456;11.064;2022-12-18T00:01:22;99493.81;;;-8.27;100.00
18323;BME280;9287;49.456;11.064;2022-12-18T00:03:53;99494.03;;;-8.35;100.00
18323;BME280;9287;49.456;11.064;2022-12-18T00:06:22;99505.81;;;-8.66;100.00
18323;BME280;9287;49.456;11.064;2022-12-18T00:08:50;99502.03;;;-8.78;100.00
18323;BME280;9287;49.456;11.064;2022-12-18T00:11:19;99499.16;;;-8.83;100.00
18323;BME280;9287;49.456;11.064;2022-12-18T00:13:49;99493.72;;;-8.75;100.00
18323;BME280;9287;49.456;11.064;2022-12-18T00:16:20;99492.72;;;-8.74;100.00
18323;BME280;9287;49.456;11.064;2022-12-18T00:18:48;99491.59;;;-8.86;100.00
18323;BME280;9287;49.456;11.064;2022-12-18T00:21:18;99488.81;;;-8.99;100.00
18323;BME280;9287;49.456;11.064;2022-12-18T00:23:48;99480.69;;;-8.98;100.00
18323;BME280;9287;49.456;11.064;2022-12-18T00:26:17;99477.09;;;-8.90;100.00
18323;BME280;9287;49.456;11.064;2022-12-18T00:28:46;99481.75;;;-8.92;100.00
18323;BME280;9287;49.456;11.064;2022-12-18T00:31:16;99490.44;;;-8.98;100.00
18323;BME280;9287;49.456;11.064;2022-12-18T00:33:44;99492.09;;;-8.97;100.00
18323;BME280;9287;49.456;11.064;2022-12-18T00:36:16;99483.78;;;-8.94;100.00
18323;BME280;9287;49.456;11.064;2022-12-18T00:38:46;99485.28;;;-8.85;100.00
18323;BME280;9287;49.456;11.064;2022-12-18T00:41:15;99491.41;;;-8.85;100.00
18323;BME280;9287;49.456;11.064;2022-12-18T00:44:05;99490.34;;;-8.90;100.00
18323;BME280;9287;49.456;11.064;2022-12-18T00:46:32;99495.88;;;-8.85;100.00
18323;BME280;9287;49.456;11.064;2022-12-18T00:48:59;99498.38;;;-8.77;100.00
18323;BME280;9287;49.456;11.064;2022-12-18T00:51:27;99499.66;;;-8.73;100.00
18323;BME280;9287;49.456;11.064;2022-12-18T00:53:56;99494.72;;;-8.76;100.00
18323;BME280;9287;49.456;11.064;2022-12-18T00:56:24;99504.94;;;-8.73;100.00
18323;BME280;9287;49.456;11.064;2022-12-18T00:58:52;99484.50;;;-8.79;100.00
18323;BME280;9287;49.456;11.064;2022-12-18T01:01:20;99485.78;;;-8.75;100.00
18323;BME280;9287;49.456;11.064;2022-12-18T01:03:48;99499.56;;;-8.80;100.00
18323;BME280;9287;49.456;11.064;2022-12-18T01:06:16;99496.28;;;-8.82;100.00
18323;BME280;9287;49.456;11.064;2022-12-18T01:08:44;99505.31;;;-8.76;100.00
18323;BME280;9287;49.456;11.064;2022-12-18T01:11:15;99515.78;;;-8.68;100.00
18323;BME280;9287;49.456;11.064;2022-12-18T01:13:43;99519.94;;;-8.80;100.00
18323;BME280;9287;49.456;11.064;2022-12-18T01:16:12;99516.44;;;-8.87;100.00
18323;BME280;9287;49.456;11.064;2022-12-18T01:18:41;99521.53;;;-8.86;100.00
18323;BME280;9287;49.456;11.064;2022-12-18T01:21:10;99521.63;;;-9.00;100.00
18323;BME280;9287;49.456;11.064;2022-12-18T01:23:38;99519.72;;;-9.06;100.00
18323;BME280;9287;49.456;11.064;2022-12-18T01:26:07;99519.19;;;-8.95;100.00
18323;BME280;9287;49.456;11.064;2022-12-18T01:28:37;99533.56;;;-9.04;100.00
18323;BME280;9287;49.456;11.064;2022-12-18T01:31:15;99528.28;;;-9.04;100.00
18323;BME280;9287;49.456;11.064;2022-12-18T01:33:44;99532.44;;;-8.95;100.00
18323;BME280;9287;49.456;11.064;2022-12-18T01:36:16;99529.41;;;-8.92;100.00
18323;BME280;9287;49.456;11.064;2022-12-18T01:38:43;99531.66;;;-9.10;100.00
18323;BME280;9287;49.456;11.064;2022-12-18T01:41:11;99540.50;;;-9.03;100.00
18323;BME280;9287;49.456;11.064;2022-12-18T01:43:46;99544.53;;;-9.07;100.00
18323;BME280;9287;49.456;11.064;2022-12-18T01:46:14;99541.25;;;-9.09;100.00
18323;BME280;9287;49.456;11.064;2022-12-18T01:48:42;99533.81;;;-9.21;100.00
18323;BME280;9287;49.456;11.064;2022-12-18T01:51:12;99544.00;;;-9.18;100.00
18323;BME280;9287;49.456;11.064;2022-12-18T01:53:41;99542.53;;;-9.05;100.00
18323;BME280;9287;49.456;11.064;2022-12-18T01:56:13;99549.44;;;-9.04;100.00
18323;BME280;9287;49.456;11.064;2022-12-18T01:58:50;99558.78;;;-9.08;100.00
18323;BME280;9287;49.456;11.064;2022-12-18T02:01:21;99553.84;;;-9.11;100.00
18323;BME280;9287;49.456;11.064;2022-12-18T02:03:50;99546.91;;;-9.13;100.00
18323;BME280;9287;49.456;11.064;2022-12-18T02:06:21;99537.88;;;-9.03;100.00
18323;BME280;9287;49.456;11.064;2022-12-18T02:09:00;99536.44;;;-8.99;100.00
18323;BME280;9287;49.456;11.064;2022-12-18T02:11:39;99544.66;;;-8.94;100.00
18323;BME280;9287;49.456;11.064;2022-12-18T02:14:17;99558.41;;;-9.05;100.00
18323;BME280;9287;49.456;11.064;2022-12-18T02:16:53;99558.03;;;-9.02;100.00
18323;BME280;9287;49.456;11.064;2022-12-18T02:19:37;99558.44;;;-8.99;100.00
18323;BME280;9287;49.456;11.064;2022-12-18T02:22:17;99562.19;;;-8.93;100.00
18323;BME280;9287;49.456;11.064;2022-12-18T02:25:00;99558.03;;;-9.02;100.00
18323;BME280;9287;49.456;11.064;2022-12-18T02:27:34;99557.13;;;-9.09;100.00
18323;BME280;9287;49.456;11.064;2022-12-18T02:30:05;99558.16;;;-8.89;100.00
18323;BME280;9287;49.456;11.064;2022-12-18T02:32:37;99553.88;;;-8.90;100.00
18323;BME280;9287;49.456;11.064;2022-12-18T02:35:13;99556.19;;;-8.81;100.00
18323;BME280;9287;49.456;11.064;2022-12-18T02:37:43;99552.03;;;-8.90;100.00
18323;BME280;9287;49.456;11.064;2022-12-18T02:40:14;99556.06;;;-8.94;100.00
18323;BME280;9287;49.456;11.064;2022-12-18T02:42:45;99549.66;;;-8.85;100.00
18323;BME280;9287;49.456;11.064;2022-12-18T02:45:13;99549.06;;;-8.80;100.00
18323;BME280;9287;49.456;11.064;2022-12-18T02:47:43;99562.44;;;-8.67;100.00
18323;BME280;9287;49.456;11.064;2022-12-18T02:50:18;99570.41;;;-8.67;100.00
18323;BME280;9287;49.456;11.064;2022-12-18T02:52:56;99577.19;;;-8.58;100.00
18323;BME280;9287;49.456;11.064;2022-12-18T02:55:37;99583.94;;;-8.55;100.00
18323;BME280;9287;49.456;11.064;2022-12-18T02:58:16;99582.78;;;-8.46;100.00
18323;BME280;9287;49.456;11.064;2022-12-18T03:00:51;99580.09;;;-8.53;100.00
18323;BME280;9287;49.456;11.064;2022-12-18T03:03:25;99566.75;;;-8.38;100.00
18323;BME280;9287;49.456;11.064;2022-12-18T03:06:00;99574.78;;;-8.25;100.00
18323;BME280;9287;49.456;11.064;2022-12-18T03:08:31;99569.22;;;-8.36;100.00
18323;BME280;9287;49.456;11.064;2022-12-18T03:11:03;99558.69;;;-8.23;100.00
18323;BME280;9287;49.456;11.064;2022-12-18T03:13:36;99555.69;;;-8.14;100.00
18323;BME280;9287;49.456;11.064;2022-12-18T03:16:06;99545.91;;;-8.13;100.00
18323;BME280;9287;49.456;11.064;2022-12-18T03:18:38;99548.41;;;-8.39;100.00
18323;BME280;9287;49.456;11.064;2022-12-18T03:21:07;99549.34;;;-8.19;100.00
18323;BME280;9287;49.456;11.064;2022-12-18T03:23:42;99552.13;;;-8.27;100.00
18323;BME280;9287;49.456;11.064;2022-12-18T03:26:14;99549.84;;;-8.37;100.00
18323;BME280;9287;49.456;11.064;2022-12-18T03:28:48;99566.69;;;-8.45;100.00
18323;BME280;9287;49.456;11.064;2022-12-18T03:31:19;99564.13;;;-8.31;100.00
18323;BME280;9287;49.456;11.064;2022-12-18T03:33:52;99558.38;;;-8.07;100.00
18323;BME280;9287;49.456;11.064;2022-12-18T03:36:21;99564.41;;;-8.20;100.00
18323;BME280;9287;49.456;11.064;2022-12-18T03:38:49;99569.47;;;-8.25;100.00
18323;BME280;9287;49.456;11.064;2022-12-18T03:41:20;99565.06;;;-8.18;100.00
18323;BME280;9287;49.456;11.064;2022-12-18T03:44:00;99564.56;;;-8.00;100.00
18323;BME280;9287;49.456;11.064;2022-12-18T03:46:39;99570.75;;;-7.86;100.00
18323;BME280;9287;49.456;11.064;2022-12-18T03:49:12;99562.88;;;-8.08;100.00
18323;BME280;9287;49.456;11.064;2022-12-18T03:51:46;99570.06;;;-7.95;100.00
18323;BME280;9287;49.456;11.064;2022-12-18T03:54:16;99568.28;;;-7.88;100.00
18323;BME280;9287;49.456;11.064;2022-12-18T03:56:47;99558.63;;;-8.02;100.00
18323;BME280;9287;49.456;11.064;2022-12-18T03:59:19;99552.69;;;-7.69;100.00
18323;BME280;9287;49.456;11.064;2022-12-18T04:01:49;99564.19;;;-7.90;100.00
18323;BME280;9287;49.456;11.064;2022-12-18T04:04:19;99573.47;;;-7.73;100.00
18323;BME280;9287;49.456;11.064;2022-12-18T04:06:48;99575.25;;;-7.87;100.00
18323;BME280;9287;49.456;11.064;2022-12-18T04:09:18;99579.34;;;-7.84;100.00
18323;BME280;9287;49.456;11.064;2022-12-18T04:11:47;99589.13;;;-7.85;100.00
18323;BME280;9287;49.456;11.064;2022-12-18T04:14:16;99589.63;;;-7.68;100.00
18323;BME280;9287;49.456;11.064;2022-12-18T04:16:44;99583.13;;;-7.65;100.00
18323;BME280;9287;49.456;11.064;2022-12-18T04:19:11;99576.63;;;-7.56;100.00
18323;BME280;9287;49.456;11.064;2022-12-18T04:21:39;99575.03;;;-7.44;100.00
18323;BME280;9287;49.456;11.064;2022-12-18T04:24:07;99582.59;;;-7.41;100.00
18323;BME280;9287;49.456;11.064;2022-12-18T04:26:35;99580.81;;;-7.34;100.00
18323;BME280;9287;49.456;11.064;2022-12-18T04:29:02;99583.63;;;-7.42;100.00
18323;BME280;9287;49.456;11.064;2022-12-18T04:31:31;99582.38;;;-7.53;100.00
18323;BME280;9287;49.456;11.064;2022-12-18T04:33:59;99590.50;;;-7.54;100.00
18323;BME280;9287;49.456;11.064;2022-12-18T04:36:27;99595.81;;;-7.54;100.00
18323;BME280;9287;49.456;11.064;2022-12-18T04:38:55;99596.56;;;-7.67;100.00
18323;BME280;9287;49.456;11.064;2022-12-18T04:41:23;99593.03;;;-7.46;100.00
18323;BME280;9287;49.456;11.064;2022-12-18T04:43:50;99598.66;;;-7.62;100.00
18323;BME280;9287;49.456;11.064;2022-12-18T04:46:18;99600.19;;;-7.75;100.00
18323;BME280;9287;49.456;11.064;2022-12-18T04:48:47;99600.25;;;-7.68;100.00
18323;BME280;9287;49.456;11.064;2022-12-18T04:51:15;99597.84;;;-7.63;100.00
18323;BME280;9287;49.456;11.064;2022-12-18T04:53:50;99594.13;;;-7.68;100.00
18323;BME280;9287;49.456;11.064;2022-12-18T04:56:17;99591.72;;;-7.63;100.00
18323;BME280;9287;49.456;11.064;2022-12-18T04:58:45;99581.94;;;-7.56;100.00
18323;BME280;9287;49.456;11.064;2022-12-18T05:01:14;99587.09;;;-7.48;100.00
18323;BME280;9287;49.456;11.064;2022-12-18T05:03:43;99580.13;;;-7.49;100.00
18323;BME280;9287;49.456;11.064;2022-12-18T05:06:13;99594.19;;;-7.55;100.00
18323;BME280;9287;49.456;11.064;2022-12-18T05:08:40;99587.56;;;-7.73;100.00
18323;BME280;9287;49.456;11.064;2022-12-18T05:11:10;99595.81;;;-7.54;100.00
18323;BME280;9287;49.456;11.064;2022-12-18T05:13:38;99585.22;;;-7.54;100.00
18323;BME280;9287;49.456;11.064;2022-12-18T05:16:07;99568.94;;;-7.38;100.00
18323;BME280;9287;49.456;11.064;2022-12-18T05:18:35;99574.56;;;-7.61;100.00
18323;BME280;9287;49.456;11.064;2022-12-18T05:21:03;99584.63;;;-7.43;100.00
18323;BME280;9287;49.456;11.064;2022-12-18T05:23:35;99575.91;;;-7.37;100.00
18323;BME280;9287;49.456;11.064;2022-12-18T05:26:05;99577.53;;;-7.36;100.00
18323;BME280;9287;49.456;11.064;2022-12-18T05:28:35;99597.63;;;-7.14;100.00
18323;BME280;9287;49.456;11.064;2022-12-18T05:31:04;99597.63;;;-7.14;100.00
18323;BME280;9287;49.456;11.064;2022-12-18T05:33:34;99603.78;;;-7.07;100.00
18323;BME280;9287;49.456;11.064;2022-12-18T05:36:05;99602.88;;;-7.27;100.00
18323;BME280;9287;49.456;11.064;2022-12-18T05:38:36;99594.72;;;-7.32;100.00
18323;BME280;9287;49.456;11.064;2022-12-18T05:41:05;99595.56;;;-7.18;100.00
18323;BME280;9287;49.456;11.064;2022-12-18T05:43:34;99589.72;;;-7.00;100.00
18323;BME280;9287;49.456;11.064;2022-12-18T05:46:04;99593.97;;;-7.06;100.00
18323;BME280;9287;49.456;11.064;2022-12-18T05:48:32;99588.25;;;-7.10;100.00
18323;BME280;9287;49.456;11.064;2022-12-18T05:51:05;99596.63;;;-7.13;100.00
18323;BME280;9287;49.456;11.064;2022-12-18T05:53:35;99593.38;;;-7.02;100.00
18323;BME280;9287;49.456;11.064;2022-12-18T05:56:05;99602.16;;;-7.01;100.00
18323;BME280;9287;49.456;11.064;2022-12-18T05:58:33;99598.69;;;-7.02;100.00
18323;BME280;9287;49.456;11.064;2022-12-18T06:01:08;99598.34;;;-6.85;100.00
18323;BME280;9287;49.456;11.064;2022-12-18T06:03:36;99602.66;;;-6.78;100.00
18323;BME280;9287;49.456;11.064;2022-12-18T06:06:04;99598.97;;;-6.70;100.00
18323;BME280;9287;49.456;11.064;2022-12-18T06:08:40;99608.78;;;-6.77;100.00
18323;BME280;9287;49.456;11.064;2022-12-18T06:11:12;99616.13;;;-6.73;100.00
18323;BME280;9287;49.456;11.064;2022-12-18T06:13:40;99615.31;;;-6.73;100.00
18323;BME280;9287;49.456;11.064;2022-12-18T06:16:08;99622.31;;;-6.59;100.00
18323;BME280;9287;49.456;11.064;2022-12-18T06:18:37;99630.84;;;-6.70;100.00
18323;BME280;9287;49.456;11.064;2022-12-18T06:21:05;99617.41;;;-6.62;100.00
18323;BME280;9287;49.456;11.064;2022-12-18T06:23:33;99617.00;;;-6.59;100.00
18323;BME280;9287;49.456;11.064;2022-12-18T06:26:05;99610.44;;;-6.63;100.00
18323;BME280;9287;49.456;11.064;2022-12-18T06:28:33;99609.22;;;-6.54;100.00
18323;BME280;9287;49.456;11.064;2022-12-18T06:31:02;99613.28;;;-6.58;100.00
18323;BME280;9287;49.456;11.064;2022-12-18T06:33:30;99612.09;;;-6.62;100.00
18323;BME280;9287;49.456;11.064;2022-12-18T06:36:00;99617.78;;;-6.72;100.00
18323;BME280;9287;49.456;11.064;2022-12-18T06:38:28;99627.63;;;-6.59;100.00
18323;BME280;9287;49.456;11.064;2022-12-18T06:40:55;99635.41;;;-6.51;100.00
18323;BME280;9287;49.456;11.064;2022-12-18T06:43:25;99629.25;;;-6.58;100.00
18323;BME280;9287;49.456;11.064;2022-12-18T06:45:58;99633.13;;;-6.54;100.00
18323;BME280;9287;49.456;11.064;2022-12-18T06:48:26;99630.47;;;-6.54;100.00
18323;BME280;9287;49.456;11.064;2022-12-18T06:50:54;99629.22;;;-6.71;100.00
18323;BME280;9287;49.456;11.064;2022-12-18T06:53:22;99640.72;;;-6.51;100.00
18323;BME280;9287;49.456;11.064;2022-12-18T06:55:50;99637.84;;;-6.62;100.00
18323;BME280;9287;49.456;11.064;2022-12-18T06:58:18;99641.50;;;-6.63;100.00
18323;BME280;9287;49.456;11.064;2022-12-18T07:00:46;99639.91;;;-6.45;100.00
18323;BME280;9287;49.456;11.064;2022-12-18T07:03:14;99638.25;;;-6.52;100.00
18323;BME280;9287;49.456;11.064;2022-12-18T07:05:42;99637.44;;;-6.59;100.00
18323;BME280;9287;49.456;11.064;2022-12-18T07:08:11;99644.00;;;-6.49;100.00
18323;BME280;9287;49.456;11.064;2022-12-18T07:10:41;99641.97;;;-6.34;100.00
18323;BME280;9287;49.456;11.064;2022-12-18T07:13:14;99641.34;;;-6.36;100.00
18323;BME280;9287;49.456;11.064;2022-12-18T07:15:42;99637.88;;;-6.43;100.00
18323;BME280;9287;49.456;11.064;2022-12-18T07:18:12;99631.75;;;-6.43;100.00
18323;BME280;9287;49.456;11.064;2022-12-18T07:20:39;99632.97;;;-6.46;100.00
18323;BME280;9287;49.456;11.064;2022-12-18T07:23:07;99629.69;;;-6.35;100.00
18323;BME280;9287;49.456;11.064;2022-12-18T07:25:35;99625.78;;;-6.39;100.00
18323;BME280;9287;49.456;11.064;2022-12-18T07:28:04;99620.06;;;-6.36;100.00
18323;BME280;9287;49.456;11.064;2022-12-18T07:30:32;99623.13;;;-6.39;100.00
18323;BME280;9287;49.456;11.064;2022-12-18T07:33:00;99627.25;;;-6.29;100.00
18323;BME280;9287;49.456;11.064;2022-12-18T07:35:29;99632.97;;;-6.19;100.00
18323;BME280;9287;49.456;11.064;2022-12-18T07:37:56;99643.22;;;-6.16;100.00
18323;BME280;9287;49.456;11.064;2022-12-18T07:40:24;99647.31;;;-6.14;100.00
18323;BME280;9287;49.456;11.064;2022-12-18T07:42:52;99649.75;;;-6.25;100.00
18323;BME280;9287;49.456;11.064;2022-12-18T07:45:19;99649.75;;;-6.12;100.00
18323;BME280;9287;49.456;11.064;2022-12-18T07:47:47;99658.34;;;-6.10;100.00
18323;BME280;9287;49.456;11.064;2022-12-18T07:50:15;99659.16;;;-6.16;100.00
18323;BME280;9287;49.456;11.064;2022-12-18T07:52:44;99675.56;;;-5.93;100.00
18323;BME280;9287;49.456;11.064;2022-12-18T07:55:12;99673.88;;;-5.81;100.00
18323;BME280;9287;49.456;11.064;2022-12-18T07:57:39;99671.63;;;-5.77;100.00
18323;BME280;9287;49.456;11.064;2022-12-18T08:00:17;99664.22;;;-5.69;100.00
18323;BME280;9287;49.456;11.064;2022-12-18T08:02:46;99667.31;;;-5.65;100.00
18323;BME280;9287;49.456;11.064;2022-12-18T08:05:14;99669.34;;;-5.61;100.00
18323;BME280;9287;49.456;11.064;2022-12-18T08:07:43;99668.94;;;-5.64;100.00
18323;BME280;9287;49.456;11.064;2022-12-18T08:10:11;99668.09;;;-5.38;100.00
18323;BME280;9287;49.456;11.064;2022-12-18T08:12:39;99675.47;;;-5.40;100.00
18323;BME280;9287;49.456;11.064;2022-12-18T08:15:07;99665.59;;;-5.33;100.00
18323;BME280;9287;49.456;11.064;2022-12-18T08:17:35;99673.75;;;-5.15;100.00
18323;BME280;9287;49.456;11.064;2022-12-18T08:20:03;99666.59;;;-5.14;100.00
18323;BME280;9287;49.456;11.064;2022-12-18T08:22:33;99678.00;;;-5.01;100.00
18323;BME280;9287;49.456;11.064;2022-12-18T08:25:02;99665.72;;;-5.02;100.00
18323;BME280;9287;49.456;11.064;2022-12-18T08:27:30;99662.22;;;-4.96;100.00
18323;BME280;9287;49.456;11.064;2022-12-18T08:29:59;99662.81;;;-4.94;100.00
18323;BME280;9287;49.456;11.064;2022-12-18T08:32:27;99663.03;;;-4.88;100.00
18323;BME280;9287;49.456;11.064;2022-12-18T08:34:55;99671.63;;;-4.86;100.00
18323;BME280;9287;49.456;11.064;2022-12-18T08:37:23;99681.25;;;-4.85;100.00
18323;BME280;9287;49.456;11.064;2022-12-18T08:39:50;99666.22;;;-4.73;100.00
18323;BME280;9287;49.456;11.064;2022-12-18T08:42:19;99664.94;;;-4.64;100.00
18323;BME280;9287;49.456;11.064;2022-12-18T08:45:05;99666.16;;;-4.60;100.00
18323;BME280;9287;49.456;11.064;2022-12-18T08:47:33;99673.97;;;-4.65;100.00
18323;BME280;9287;49.456;11.064;2022-12-18T08:50:01;99679.06;;;-4.57;100.00
18323;BME280;9287;49.456;11.064;2022-12-18T08:52:31;99671.56;;;-4.73;100.00
18323;BME280;9287;49.456;11.064;2022-12-18T08:54:58;99676.84;;;-4.67;100.00
18323;BME280;9287;49.456;11.064;2022-12-18T08:57:28;99664.09;;;-4.58;100.00
18323;BME280;9287;49.456;11.064;2022-12-18T08:59:55;99663.59;;;-4.42;100.00
18323;BME280;9287;49.456;11.064;2022-12-18T09:02:23;99659.97;;;-4.54;100.00
18323;BME280;9287;49.456;11.064;2022-12-18T09:04:51;99660.41;;;-4.57;100.00
18323;BME280;9287;49.456;11.064;2022-12-18T09:07:23;99662.47;;;-4.59;100.00
18323;BME280;9287;49.456;11.064;2022-12-18T09:09:50;99660.44;;;-4.64;100.00
18323;BME280;9287;49.456;11.064;2022-12-18T09:12:18;99667.78;;;-4.59;100.00
18323;BME280;9287;49.456;11.064;2022-12-18T09:14:47;99662.44;;;-4.52;100.00
18323;BME280;9287;49.456;11.064;2022-12-18T09:17:15;99662.81;;;-4.49;100.00
18323;BME280;9287;49.456;11.064;2022-12-18T09:19:42;99661.16;;;-4.50;100.00
18323;BME280;9287;49.456;11.064;2022-12-18T09:22:10;99665.63;;;-4.37;100.00
18323;BME280;9287;49.456;11.064;2022-12-18T09:24:38;99670.47;;;-4.28;100.00
18323;BME280;9287;49.456;11.064;2022-12-18T09:27:06;99664.44;;;-4.48;100.00
18323;BME280;9287;49.456;11.064;2022-12-18T09:29:34;99676.22;;;-4.31;100.00
18323;BME280;9287;49.456;11.064;2022-12-18T09:32:03;99654.53;;;-4.34;100.00
18323;BME280;9287;49.456;11.064;2022-12-18T09:34:31;99654.91;;;-4.31;100.00
18323;BME280;9287;49.456;11.064;2022-12-18T09:36:59;99651.88;;;-4.09;100.00
18323;BME280;9287;49.456;11.064;2022-12-18T09:39:26;99654.72;;;-4.04;100.00
18323;BME280;9287;49.456;11.064;2022-12-18T09:41:56;99649.56;;;-4.31;100.00
18323;BME280;9287;49.456;11.064;2022-12-18T09:44:26;99645.78;;;-4.16;100.00
18323;BME280;9287;49.456;11.064;2022-12-18T09:47:10;99641.75;;;-4.26;100.00
18323;BME280;9287;49.456;11.064;2022-12-18T09:49:42;99643.09;;;-4.48;100.00
18323;BME280;9287;49.456;11.064;2022-12-18T09:52:14;99640.19;;;-4.40;100.00
18323;BME280;9287;49.456;11.064;2022-12-18T09:54:46;99638.13;;;-4.38;100.00
18323;BME280;9287;49.456;11.064;2022-12-18T09:57:19;99642.13;;;-4.22;100.00
18323;BME280;9287;49.456;11.064;2022-12-18T09:59:51;99643.38;;;-4.25;100.00
18323;BME280;9287;49.456;11.064;2022-12-18T10:02:23;99644.72;;;-4.40;100.00
18323;BME280;9287;49.456;11.064;2022-12-18T10:05:02;99639.16;;;-4.07;100.00
18323;BME280;9287;49.456;11.064;2022-12-18T10:07:40;99643.50;;;-3.88;100.00
18323;BME280;9287;49.456;11.064;2022-12-18T10:10:18;99643.38;;;-3.75;100.00
18323;BME280;9287;49.456;11.064;2022-12-18T10:12:51;99631.56;;;-3.42;100.00
18323;BME280;9287;49.456;11.064;2022-12-18T10:15:34;99637.28;;;-3.21;100.00
18323;BME280;9287;49.456;11.064;2022-12-18T10:18:19;99622.50;;;-3.05;100.00
18323;BME280;9287;49.456;11.064;2022-12-18T10:20:54;99617.91;;;-2.98;100.00
18323;BME280;9287;49.456;11.064;2022-12-18T10:23:32;99616.78;;;-3.08;100.00
18323;BME280;9287;49.456;11.064;2022-12-18T10:26:05;99612.75;;;-3.29;100.00
18323;BME280;9287;49.456;11.064;2022-12-18T10:28:39;99619.25;;;-3.43;100.00
18323;BME280;9287;49.456;11.064;2022-12-18T10:31:14;99617.75;;;-3.58;100.00
18323;BME280;9287;49.456;11.064;2022-12-18T10:33:45;99623.22;;;-3.71;100.00
18323;BME280;9287;49.456;11.064;2022-12-18T10:36:13;99615.75;;;-3.62;100.00
18323;BME280;9287;49.456;11.064;2022-12-18T10:38:41;99614.19;;;-3.70;100.00
18323;BME280;9287;49.456;11.064;2022-12-18T10:41:24;99619.56;;;-3.33;100.00
18323;BME280;9287;49.456;11.064;2022-12-18T10:44:12;99625.03;;;-3.28;100.00
18323;BME280;9287;49.456;11.064;2022-12-18T10:46:42;99616.88;;;-3.52;100.00
18323;BME280;9287;49.456;11.064;2022-12-18T10:49:26;99624.88;;;-3.70;100.00
18323;BME280;9287;49.456;11.064;2022-12-18T10:52:05;99630.84;;;-3.31;100.00
18323;BME280;9287;49.456;11.064;2022-12-18T10:54:36;99628.03;;;-3.36;100.00
18323;BME280;9287;49.456;11.064;2022-12-18T10:57:20;99625.63;;;-3.26;100.00
18323;BME280;9287;49.456;11.064;2022-12-18T10:59:58;99629.34;;;-3.27;100.00
18323;BME280;9287;49.456;11.064;2022-12-18T11:02:33;99629.63;;;-2.81;100.00
18323;BME280;9287;49.456;11.064;2022-12-18T11:05:24;99637.66;;;-2.99;100.00
18323;BME280;9287;49.456;11.064;2022-12-18T11:07:53;99643.31;;;-3.07;100.00
18323;BME280;9287;49.456;11.064;2022-12-18T11:10:25;99646.56;;;-2.87;100.00
18323;BME280;9287;49.456;11.064;2022-12-18T11:12:55;99648.75;;;-2.65;100.00
18323;BME280;9287;49.456;11.064;2022-12-18T11:15:26;99630.78;;;-2.76;100.00
18323;BME280;9287;49.456;11.064;2022-12-18T11:17:55;99626.78;;;-2.67;100.00
18323;BME280;9287;49.456;11.064;2022-12-18T11:20:30;99618.25;;;-1.81;100.00
18323;BME280;9287;49.456;11.064;2022-12-18T11:23:01;99616.97;;;-1.79;100.00
18323;BME280;9287;49.456;11.064;2022-12-18T11:25:31;99611.22;;;-1.35;100.00
18323;BME280;9287;49.456;11.064;2022-12-18T11:28:02;99607.56;;;-1.58;100.00
18323;BME280;9287;49.456;11.064;2022-12-18T11:30:32;99607.41;;;-1.51;100.00
18323;BME280;9287;49.456;11.064;2022-12-18T11:33:04;99611.94;;;-1.28;99.78
18323;BME280;9287;49.456;11.064;2022-12-18T11:35:39;99618.34;;;-1.88;100.00
18323;BME280;9287;49.456;11.064;2022-12-18T11:38:18;99610.22;;;-1.46;100.00
18323;BME280;9287;49.456;11.064;2022-12-18T11:40:53;99604.59;;;-0.53;97.08
18323;BME280;9287;49.456;11.064;2022-12-18T11:43:27;99609.47;;;-0.50;93.29
18323;BME280;9287;49.456;11.064;2022-12-18T11:45:59;99596.41;;;-0.75;95.45
18323;BME280;9287;49.456;11.064;2022-12-18T11:48:32;99582.22;;;-0.87;97.25
18323;BME280;9287;49.456;11.064;2022-12-18T11:51:05;99581.06;;;-0.91;96.15
18323;BME280;9287;49.456;11.064;2022-12-18T11:53:36;99581.34;;;-1.04;95.15
18323;BME280;9287;49.456;11.064;2022-12-18T11:56:13;99585.84;;;-0.36;93.39
18323;BME280;9287;49.456;11.064;2022-12-18T11:58:47;99570.78;;;-0.37;90.86
18323;BME280;9287;49.456;11.064;2022-12-18T12:01:33;99556.00;;;-0.23;90.89
18323;BME280;9287;49.456;11.064;2022-12-18T12:04:24;99551.47;;;-0.96;94.94
18323;BME280;9287;49.456;11.064;2022-12-18T12:07:05;99569.56;;;-0.75;94.48
18323;BME280;9287;49.456;11.064;2022-12-18T12:09:47;99567.66;;;-0.91;95.21
18323;BME280;9287;49.456;11.064;2022-12-18T12:12:27;99568.59;;;-1.25;100.00
18323;BME280;9287;49.456;11.064;2022-12-18T12:15:24;99570.13;;;-1.01;98.46
18323;BME280;9287;49.456;11.064;2022-12-18T12:17:58;99568.50;;;-1.02;94.87
18323;BME280;9287;49.456;11.064;2022-12-18T12:20:44;99565.47;;;-0.49;92.87
18323;BME280;9287;49.456;11.064;2022-12-18T12:23:22;99546.75;;;-1.17;94.68
18323;BME280;9287;49.456;11.064;2022-12-18T12:25:59;99549.28;;;-0.71;94.71
18323;BME280;9287;49.456;11.064;2022-12-18T12:28:52;99548.22;;;-0.98;96.84
18323;BME280;9287;49.456;11.064;2022-12-18T12:31:30;99553.72;;;-1.68;98.76
18323;BME280;9287;49.456;11.064;2022-12-18T12:34:04;99553.84;;;-1.11;99.82
18323;BME280;9287;49.456;11.064;2022-12-18T12:36:42;99564.47;;;-1.91;100.00
18323;BME280;9287;49.456;11.064;2022-12-18T12:39:16;99559.41;;;-1.01;98.91
18323;BME280;9287;49.456;11.064;2022-12-18T12:41:46;99557.69;;;-0.79;96.94
18323;BME280;9287;49.456;11.064;2022-12-18T12:44:35;99549.72;;;-1.30;100.00
18323;BME280;9287;49.456;11.064;2022-12-18T12:47:14;99547.63;;;-1.28;97.40
18323;BME280;9287;49.456;11.064;2022-12-18T12:49:46;99559.78;;;-1.61;99.33
18323;BME280;9287;49.456;11.064;2022-12-18T12:52:22;99546.34;;;-1.37;100.00
18323;BME280;9287;49.456;11.064;2022-12-18T12:54:55;99539.34;;;-1.38;99.65
18323;BME280;9287;49.456;11.064;2022-12-18T12:57:30;99541.22;;;-0.99;97.89
18323;BME280;9287;49.456;11.064;2022-12-18T13:00:05;99539.00;;;-1.30;99.44
18323;BME280;9287;49.456;11.064;2022-12-18T13:02:41;99539.00;;;-1.30;100.00
18323;BME280;9287;49.456;11.064;2022-12-18T13:05:18;99535.25;;;-0.89;94.37
18323;BME280;9287;49.456;11.064;2022-12-18T13:07:52;99530.31;;;-1.61;99.66
18323;BME280;9287;49.456;11.064;2022-12-18T13:10:31;99541.94;;;-1.44;100.00
18323;BME280;9287;49.456;11.064;2022-12-18T13:13:01;99539.53;;;-1.57;100.00